createdAt,value
2023-01-13T00:01:10.245Z,97685.86
2023-01-13T00:03:38.610Z,97687.31
2023-01-13T00:06:07.715Z,97686.86
2023-01-13T00:08:35.976Z,97683.31
2023-01-13T00:11:04.267Z,97684.23
2023-01-13T00:13:34.603Z,97685.26
2023-01-13T00:16:05.400Z,97680.59
2023-01-13T00:18:34.021Z,97677.32
2023-01-13T00:21:04.702Z,97675.82
2023-01-13T00:23:34.919Z,97676.90
2023-01-13T00:26:06.654Z,97670.77
2023-01-13T00:28:34.191Z,97672.87
2023-01-13T00:31:06.250Z,97670.06
2023-01-13T00:33:35.301Z,97668.85
2023-01-13T00:36:06.268Z,97665.35
2023-01-13T00:38:36.118Z,97666.13
2023-01-13T00:41:06.739Z,97669.16
2023-01-13T00:43:36.850Z,97676.77
2023-01-13T00:46:07.525Z,97674.48
2023-01-13T00:48:37.120Z,97671.38
2023-01-13T00:51:07.228Z,97675.36
2023-01-13T00:53:37.321Z,97677.81
2023-01-13T00:56:09.011Z,97673.69
2023-01-13T00:58:36.767Z,97677.98
2023-01-13T01:01:07.151Z,97670.44
2023-01-13T01:03:35.932Z,97669.30
2023-01-13T01:06:06.578Z,97670.92
2023-01-13T01:08:35.080Z,97668.34
2023-01-13T01:11:04.684Z,97663.13
2023-01-13T01:13:33.280Z,97657.38
2023-01-13T01:16:06.157Z,97655.08
2023-01-13T01:18:35.813Z,97654.90
2023-01-13T01:21:05.120Z,97654.51
2023-01-13T01:23:34.527Z,97654.09
2023-01-13T01:26:04.309Z,97644.41
2023-01-13T01:28:33.460Z,97644.34
2023-01-13T01:31:06.883Z,97633.77
2023-01-13T01:33:35.217Z,97630.16
2023-01-13T01:36:04.262Z,97628.96
2023-01-13T01:38:32.563Z,97624.85
2023-01-13T01:41:00.888Z,97618.55
2023-01-13T01:44:02.285Z,97613.59
2023-01-13T01:46:33.369Z,97610.95
2023-01-13T01:49:07.096Z,97611.61
2023-01-13T01:51:38.830Z,97605.38
2023-01-13T01:54:11.048Z,97599.46
2023-01-13T01:56:41.892Z,97599.50
2023-01-13T01:59:10.823Z,97596.36
2023-01-13T02:01:40.900Z,97592.95
2023-01-13T02:04:15.087Z,97596.75
2023-01-13T02:06:44.037Z,97596.64
2023-01-13T02:09:13.747Z,97593.75
2023-01-13T02:12:15.265Z,97592.52
2023-01-13T02:14:44.887Z,97590.57
2023-01-13T02:17:25.735Z,97590.56
2023-01-13T02:20:19.145Z,97589.80
2023-01-13T02:23:34.597Z,97591.67
2023-01-13T02:26:26.659Z,97584.54
2023-01-13T02:29:30.100Z,97578.28
2023-01-13T02:32:03.806Z,97574.43
2023-01-13T02:34:38.646Z,97576.06
2023-01-13T02:37:12.937Z,97578.84
2023-01-13T02:39:50.309Z,97578.17
2023-01-13T02:42:43.691Z,97571.38
2023-01-13T02:45:15.761Z,97563.96
2023-01-13T02:47:47.166Z,97562.16
2023-01-13T02:50:18.566Z,97559.09
2023-01-13T02:52:51.908Z,97556.98
2023-01-13T02:55:26.416Z,97553.64
2023-01-13T02:57:58.817Z,97554.55
2023-01-13T03:00:28.072Z,97554.41
2023-01-13T03:02:56.340Z,97550.70
2023-01-13T03:05:26.010Z,97554.29
2023-01-13T03:08:17.098Z,97548.52
2023-01-13T03:10:56.269Z,97543.17
2023-01-13T03:13:57.549Z,97536.12
2023-01-13T03:16:31.346Z,97541.86
2023-01-13T03:19:14.226Z,97539.77
2023-01-13T03:21:49.969Z,97542.73
2023-01-13T03:24:25.278Z,97540.88
2023-01-13T03:27:01.438Z,97537.11
2023-01-13T03:29:35.584Z,97536.13
2023-01-13T03:32:10.350Z,97534.29
2023-01-13T03:34:45.502Z,97536.85
2023-01-13T03:37:16.815Z,97529.42
2023-01-13T03:39:49.842Z,97529.44
2023-01-13T03:42:22.343Z,97530.58
2023-01-13T03:44:55.288Z,97530.46
2023-01-13T03:47:28.574Z,97531.88
2023-01-13T03:50:03.063Z,97522.16
2023-01-13T03:52:34.930Z,97520.98
2023-01-13T03:55:07.687Z,97523.67
2023-01-13T03:57:41.428Z,97519.98
2023-01-13T04:00:14.096Z,97519.30
2023-01-13T04:02:49.878Z,97513.19
2023-01-13T04:05:19.052Z,97508.61
2023-01-13T04:07:52.684Z,97515.05
2023-01-13T04:10:27.179Z,97517.48
2023-01-13T04:13:00.184Z,97523.23
2023-01-13T04:15:31.423Z,97516.77
2023-01-13T04:18:10.064Z,97519.61
2023-01-13T04:20:39.277Z,97518.33
2023-01-13T04:23:07.878Z,97518.59
2023-01-13T04:25:36.941Z,97514.56
2023-01-13T04:28:05.887Z,97517.89
2023-01-13T04:30:34.056Z,97515.10
2023-01-13T04:33:03.435Z,97509.87
2023-01-13T04:35:32.164Z,97510.25
2023-01-13T04:38:01.822Z,97516.83
2023-01-13T04:40:30.064Z,97519.59
2023-01-13T04:42:58.328Z,97524.79
2023-01-13T04:45:26.566Z,97524.24
2023-01-13T04:47:54.744Z,97520.03
2023-01-13T04:50:23.063Z,97518.76
2023-01-13T04:52:52.898Z,97518.33
2023-01-13T04:55:23.113Z,97517.92
2023-01-13T04:57:51.404Z,97526.05
2023-01-13T05:00:21.906Z,97522.23
2023-01-13T05:02:50.789Z,97523.94
2023-01-13T05:05:19.285Z,97510.73
2023-01-13T05:07:47.504Z,97510.61
2023-01-13T05:10:16.526Z,97509.33
2023-01-13T05:13:03.548Z,97505.73
2023-01-13T05:15:50.436Z,97504.84
2023-01-13T05:18:19.290Z,97512.42
2023-01-13T05:20:47.468Z,97519.39
2023-01-13T05:23:33.883Z,97515.34
2023-01-13T05:26:02.219Z,97514.16
2023-01-13T05:28:32.997Z,97521.55
2023-01-13T05:31:01.506Z,97521.86
2023-01-13T05:33:29.785Z,97520.21
2023-01-13T05:36:03.019Z,97520.89
2023-01-13T05:38:31.301Z,97523.15
2023-01-13T05:41:18.736Z,97519.61
2023-01-13T05:43:46.996Z,97516.73
2023-01-13T05:46:16.940Z,97513.89
2023-01-13T05:48:45.445Z,97508.81
2023-01-13T05:51:13.859Z,97514.46
2023-01-13T05:53:42.068Z,97521.86
2023-01-13T05:56:10.714Z,97517.64
2023-01-13T05:58:38.936Z,97518.05
2023-01-13T06:01:08.969Z,97512.80
2023-01-13T06:03:37.554Z,97509.97
2023-01-13T06:06:08.139Z,97513.22
2023-01-13T06:08:38.675Z,97510.66
2023-01-13T06:11:07.164Z,97515.39
2023-01-13T06:13:35.407Z,97517.48
2023-01-13T06:16:04.154Z,97514.30
2023-01-13T06:18:32.401Z,97516.17
2023-01-13T06:21:00.655Z,97515.80
2023-01-13T06:23:34.188Z,97520.15
2023-01-13T06:26:09.689Z,97521.10
2023-01-13T06:28:37.967Z,97526.15
2023-01-13T06:31:08.244Z,97527.10
2023-01-13T06:33:38.847Z,97528.39
2023-01-13T06:36:16.571Z,97529.65
2023-01-13T06:38:48.935Z,97525.94
2023-01-13T06:41:37.977Z,97530.52
2023-01-13T06:44:06.388Z,97527.89
2023-01-13T06:46:34.955Z,97530.36
2023-01-13T06:49:03.326Z,97531.96
2023-01-13T06:51:31.486Z,97533.05
2023-01-13T06:53:59.664Z,97535.91
2023-01-13T06:56:27.879Z,97534.17
2023-01-13T06:58:56.026Z,97534.46
2023-01-13T07:01:24.387Z,97530.42
2023-01-13T07:03:52.601Z,97527.36
2023-01-13T07:06:20.834Z,97529.02
2023-01-13T07:08:49.163Z,97528.23
2023-01-13T07:11:17.316Z,97525.23
2023-01-13T07:14:03.724Z,97523.96
2023-01-13T07:16:32.081Z,97524.05
2023-01-13T07:19:00.410Z,97517.36
2023-01-13T07:21:28.643Z,97519.40
2023-01-13T07:23:57.214Z,97510.41
2023-01-13T07:26:25.588Z,97518.10
2023-01-13T07:28:54.030Z,97530.05
2023-01-13T07:31:22.234Z,97532.73
2023-01-13T07:33:50.616Z,97533.77
2023-01-13T07:36:18.851Z,97529.21
2023-01-13T07:38:47.068Z,97528.90
2023-01-13T07:41:33.683Z,97528.45
2023-01-13T07:44:05.361Z,97530.16
2023-01-13T07:46:33.912Z,97529.18
2023-01-13T07:49:02.313Z,97528.54
2023-01-13T07:51:30.655Z,97527.09
2023-01-13T07:53:59.022Z,97527.73
2023-01-13T07:56:27.220Z,97521.89
2023-01-13T07:58:55.464Z,97525.81
2023-01-13T08:01:23.752Z,97527.12
2023-01-13T08:03:52.014Z,97526.05
2023-01-13T08:06:20.255Z,97531.70
2023-01-13T08:08:48.504Z,97526.77
2023-01-13T08:11:17.048Z,97533.48
2023-01-13T08:13:45.333Z,97531.90
2023-01-13T08:16:14.967Z,97535.40
2023-01-13T08:18:43.680Z,97538.74
2023-01-13T08:21:13.672Z,97540.92
2023-01-13T08:23:43.374Z,97542.41
2023-01-13T08:26:14.027Z,97542.38
2023-01-13T08:28:42.403Z,97539.96
2023-01-13T08:31:12.811Z,97545.04
2023-01-13T08:33:41.583Z,97548.52
2023-01-13T08:36:11.894Z,97549.04
2023-01-13T08:38:41.020Z,97551.10
2023-01-13T08:41:10.160Z,97549.05
2023-01-13T08:43:38.581Z,97548.85
2023-01-13T08:46:07.076Z,97551.41
2023-01-13T08:48:35.593Z,97548.39
2023-01-13T08:51:06.021Z,97548.64
2023-01-13T08:53:34.340Z,97551.33
2023-01-13T08:56:06.063Z,97547.17
2023-01-13T08:58:34.218Z,97549.67
2023-01-13T09:01:06.171Z,97554.37
2023-01-13T09:03:34.484Z,97550.77
2023-01-13T09:06:02.897Z,97556.18
2023-01-13T09:08:31.229Z,97548.94
2023-01-13T09:10:59.535Z,97548.77
2023-01-13T09:13:27.784Z,97550.04
2023-01-13T09:15:56.164Z,97553.96
2023-01-13T09:18:24.399Z,97551.91
2023-01-13T09:20:52.843Z,97543.41
2023-01-13T09:23:21.007Z,97540.61
2023-01-13T09:25:49.211Z,97539.59
2023-01-13T09:28:17.507Z,97538.35
2023-01-13T09:30:45.790Z,97537.10
2023-01-13T09:33:32.254Z,97531.16
2023-01-13T09:36:00.556Z,97530.09
2023-01-13T09:38:28.772Z,97527.92
2023-01-13T09:40:57.004Z,97519.83
2023-01-13T09:43:51.287Z,97517.95
2023-01-13T09:46:42.830Z,97512.20
2023-01-13T09:49:19.980Z,97505.74
2023-01-13T09:51:55.114Z,97505.23
2023-01-13T09:54:31.555Z,97509.73
2023-01-13T09:57:00.572Z,97506.48
2023-01-13T09:59:31.934Z,97507.63
2023-01-13T10:02:10.489Z,97511.20
2023-01-13T10:04:38.867Z,97508.80
2023-01-13T10:07:14.087Z,97514.30
2023-01-13T10:09:49.203Z,97503.92
2023-01-13T10:12:44.556Z,97502.09
2023-01-13T10:15:16.902Z,97500.25
2023-01-13T10:17:54.816Z,97500.63
2023-01-13T10:20:27.494Z,97498.97
2023-01-13T10:23:04.156Z,97492.38
2023-01-13T10:25:52.161Z,97496.77
2023-01-13T10:28:23.148Z,97492.20
2023-01-13T10:30:51.805Z,97487.73
2023-01-13T10:33:26.944Z,97480.23
2023-01-13T10:35:59.119Z,97484.23
2023-01-13T10:38:30.699Z,97475.23
2023-01-13T10:40:59.000Z,97471.16
2023-01-13T10:43:28.949Z,97465.45
2023-01-13T10:46:00.760Z,97465.64
2023-01-13T10:48:34.842Z,97462.23
2023-01-13T10:51:24.668Z,97457.71
2023-01-13T10:53:56.902Z,97455.90
2023-01-13T10:56:27.161Z,97454.95
2023-01-13T10:59:12.581Z,97446.95
2023-01-13T11:01:42.468Z,97450.98
2023-01-13T11:04:28.966Z,97441.28
2023-01-13T11:06:57.704Z,97443.71
2023-01-13T11:09:28.679Z,97439.59
2023-01-13T11:11:57.659Z,97438.62
2023-01-13T11:14:38.794Z,97437.62
2023-01-13T11:17:23.099Z,97434.34
2023-01-13T11:20:03.856Z,97441.59
2023-01-13T11:22:37.527Z,97435.55
2023-01-13T11:25:13.448Z,97438.48
2023-01-13T11:27:46.665Z,97433.06
2023-01-13T11:30:26.531Z,97439.86
2023-01-13T11:33:05.858Z,97442.64
2023-01-13T11:35:40.382Z,97441.92
2023-01-13T11:38:14.372Z,97435.73
2023-01-13T11:40:46.941Z,97445.08
2023-01-13T11:43:21.695Z,97443.23
2023-01-13T11:45:53.570Z,97445.81
2023-01-13T11:48:26.570Z,97442.38
2023-01-13T11:51:02.332Z,97440.06
2023-01-13T11:53:49.449Z,97430.90
2023-01-13T11:56:32.698Z,97423.77
2023-01-13T11:59:22.470Z,97420.25
2023-01-13T12:02:07.400Z,97417.45
2023-01-13T12:04:43.253Z,97416.58
2023-01-13T12:07:22.101Z,97417.67
2023-01-13T12:10:04.136Z,97415.24
2023-01-13T12:12:46.773Z,97419.34
2023-01-13T12:15:49.589Z,97418.36
2023-01-13T12:18:40.617Z,97420.35
2023-01-13T12:21:19.637Z,97419.52
2023-01-13T12:23:57.769Z,97410.77
2023-01-13T12:26:29.374Z,97402.64
2023-01-13T12:29:02.132Z,97404.45
2023-01-13T12:31:33.476Z,97408.11
2023-01-13T12:34:20.578Z,97405.25
2023-01-13T12:36:57.838Z,97400.98
2023-01-13T12:39:37.156Z,97404.13
2023-01-13T12:42:32.826Z,97404.54
2023-01-13T12:45:22.067Z,97407.25
2023-01-13T12:47:50.298Z,97411.41
2023-01-13T12:50:39.994Z,97415.52
2023-01-13T12:53:30.493Z,97411.04
2023-01-13T12:56:30.287Z,97412.71
2023-01-13T12:59:40.109Z,97414.52
2023-01-13T13:02:38.277Z,97412.73
2023-01-13T13:05:44.291Z,97417.55
2023-01-13T13:08:20.192Z,97423.02
2023-01-13T13:11:01.611Z,97429.55
2023-01-13T13:13:45.671Z,97429.85
2023-01-13T13:16:47.724Z,97431.86
2023-01-13T13:19:54.615Z,97430.92
2023-01-13T13:22:38.499Z,97431.80
2023-01-13T13:25:33.144Z,97435.47
2023-01-13T13:28:15.811Z,97441.52
2023-01-13T13:31:03.676Z,97444.69
2023-01-13T13:33:50.338Z,97449.02
2023-01-13T13:36:45.709Z,97444.54
2023-01-13T13:39:40.300Z,97445.18
2023-01-13T13:42:33.895Z,97440.13
2023-01-13T13:45:30.189Z,97438.53
2023-01-13T13:47:59.485Z,97441.94
2023-01-13T13:50:32.485Z,97444.31
2023-01-13T13:53:05.116Z,97444.55
2023-01-13T13:55:34.680Z,97441.95
2023-01-13T13:58:03.134Z,97438.80
2023-01-13T14:00:34.822Z,97436.77
2023-01-13T14:03:06.474Z,97432.75
2023-01-13T14:05:36.588Z,97434.88
2023-01-13T14:08:14.322Z,97432.02
2023-01-13T14:10:44.897Z,97431.20
2023-01-13T14:13:20.911Z,97433.88
2023-01-13T14:15:55.755Z,97439.71
2023-01-13T14:18:25.714Z,97441.09
2023-01-13T14:21:03.468Z,97446.77
2023-01-13T14:23:33.615Z,97445.78
2023-01-13T14:26:07.225Z,97448.53
2023-01-13T14:28:37.792Z,97447.00
2023-01-13T14:31:08.997Z,97451.05
2023-01-13T14:33:39.261Z,97447.85
2023-01-13T14:36:19.366Z,97440.65
2023-01-13T14:38:48.816Z,97442.16
2023-01-13T14:41:25.871Z,97442.88
2023-01-13T14:43:58.544Z,97446.33
2023-01-13T14:46:37.405Z,97447.25
2023-01-13T14:49:15.124Z,97442.31
2023-01-13T14:51:43.538Z,97438.30
2023-01-13T14:54:52.004Z,97437.35
2023-01-13T14:57:27.877Z,97438.42
2023-01-13T15:00:18.177Z,97445.67
2023-01-13T15:02:48.393Z,97452.96
2023-01-13T15:05:37.406Z,97456.89
2023-01-13T15:08:30.820Z,97462.11
2023-01-13T15:11:00.685Z,97467.58
2023-01-13T15:13:35.887Z,97475.35
2023-01-13T15:16:07.035Z,97471.45
2023-01-13T15:18:39.285Z,97470.79
2023-01-13T15:21:08.707Z,97472.50
2023-01-13T15:23:39.114Z,97476.41
2023-01-13T15:26:18.421Z,97475.91
2023-01-13T15:28:47.223Z,97475.35
2023-01-13T15:31:15.557Z,97475.30
2023-01-13T15:33:43.847Z,97476.04
2023-01-13T15:36:21.398Z,97477.27
2023-01-13T15:38:49.906Z,97478.19
2023-01-13T15:41:39.351Z,97483.73
2023-01-13T15:44:28.373Z,97483.52
2023-01-13T15:46:58.250Z,97485.52
2023-01-13T15:49:33.976Z,97480.30
2023-01-13T15:52:03.504Z,97483.69
2023-01-13T15:54:31.842Z,97480.21
2023-01-13T15:57:00.396Z,97480.95
2023-01-13T15:59:28.613Z,97480.45
2023-01-13T16:01:56.812Z,97480.14
2023-01-13T16:04:24.982Z,97484.15
2023-01-13T16:06:53.203Z,97484.19
2023-01-13T16:09:21.409Z,97489.31
2023-01-13T16:11:49.592Z,97493.64
2023-01-13T16:14:17.765Z,97495.08
2023-01-13T16:16:46.037Z,97498.71
2023-01-13T16:19:14.220Z,97500.52
2023-01-13T16:21:42.419Z,97500.30
2023-01-13T16:24:10.705Z,97506.22
2023-01-13T16:26:38.951Z,97502.95
2023-01-13T16:29:07.370Z,97502.00
2023-01-13T16:31:36.366Z,97506.73
2023-01-13T16:34:05.614Z,97505.10
2023-01-13T16:36:35.914Z,97510.34
2023-01-13T16:39:06.350Z,97509.27
2023-01-13T16:41:34.544Z,97513.56
2023-01-13T16:44:05.248Z,97512.91
2023-01-13T16:46:33.842Z,97513.39
2023-01-13T16:49:05.475Z,97509.83
2023-01-13T16:51:32.924Z,97517.42
2023-01-13T16:54:01.146Z,97514.64
2023-01-13T16:56:30.937Z,97515.45
2023-01-13T16:59:04.868Z,97517.59
2023-01-13T17:01:35.073Z,97517.57
2023-01-13T17:04:04.860Z,97518.98
2023-01-13T17:06:38.407Z,97519.11
2023-01-13T17:09:14.233Z,97518.27
2023-01-13T17:11:42.549Z,97517.15
2023-01-13T17:14:19.289Z,97516.09
2023-01-13T17:16:48.373Z,97513.77
2023-01-13T17:19:16.857Z,97517.89
2023-01-13T17:21:46.406Z,97515.21
2023-01-13T17:24:14.816Z,97515.46
2023-01-13T17:26:46.859Z,97516.29
2023-01-13T17:29:17.368Z,97516.83
2023-01-13T17:31:45.826Z,97514.08
2023-01-13T17:34:14.548Z,97518.04
2023-01-13T17:36:42.883Z,97521.27
2023-01-13T17:39:16.043Z,97521.72
2023-01-13T17:41:44.406Z,97522.42
2023-01-13T17:44:13.274Z,97528.52
2023-01-13T17:46:41.768Z,97539.34
2023-01-13T17:49:10.917Z,97541.03
2023-01-13T17:51:39.187Z,97542.21
2023-01-13T17:54:11.183Z,97545.38
2023-01-13T17:56:39.497Z,97549.38
2023-01-13T17:59:10.109Z,97551.38
2023-01-13T18:01:39.452Z,97552.83
2023-01-13T18:04:13.503Z,97552.48
2023-01-13T18:06:41.709Z,97554.09
2023-01-13T18:09:09.992Z,97549.02
2023-01-13T18:11:38.528Z,97547.33
2023-01-13T18:14:08.710Z,97549.55
2023-01-13T18:16:37.218Z,97547.58
2023-01-13T18:19:24.295Z,97551.34
2023-01-13T18:22:11.366Z,97561.40
2023-01-13T18:24:57.965Z,97566.08
2023-01-13T18:27:33.964Z,97571.69
2023-01-13T18:30:04.531Z,97572.52
2023-01-13T18:32:33.313Z,97582.33
2023-01-13T18:35:06.747Z,97593.02
2023-01-13T18:37:37.760Z,97599.42
2023-01-13T18:40:08.951Z,97609.04
2023-01-13T18:42:53.650Z,97610.92
2023-01-13T18:45:24.414Z,97613.15
2023-01-13T18:47:53.909Z,97611.66
2023-01-13T18:50:22.494Z,97609.58
2023-01-13T18:52:51.415Z,97608.85
2023-01-13T18:55:20.109Z,97615.48
2023-01-13T18:57:48.646Z,97617.55
2023-01-13T19:00:20.087Z,97612.34
2023-01-13T19:02:49.908Z,97605.93
2023-01-13T19:05:18.528Z,97610.48
2023-01-13T19:07:51.027Z,97615.95
2023-01-13T19:10:19.456Z,97619.45
2023-01-13T19:12:47.615Z,97624.17
2023-01-13T19:15:16.128Z,97625.20
2023-01-13T19:17:44.873Z,97630.94
2023-01-13T19:20:13.447Z,97629.00
2023-01-13T19:22:41.626Z,97627.00
2023-01-13T19:25:10.125Z,97628.23
2023-01-13T19:27:39.313Z,97630.19
2023-01-13T19:30:10.336Z,97636.10
2023-01-13T19:32:38.670Z,97639.92
2023-01-13T19:35:08.299Z,97642.80
2023-01-13T19:37:37.640Z,97645.13
2023-01-13T19:40:09.332Z,97647.56
2023-01-13T19:42:55.779Z,97645.89
2023-01-13T19:45:26.547Z,97641.12
2023-01-13T19:47:55.110Z,97643.64
2023-01-13T19:50:24.047Z,97642.79
2023-01-13T19:52:52.251Z,97644.67
2023-01-13T19:55:20.924Z,97643.82
2023-01-13T19:57:49.203Z,97648.27
2023-01-13T20:00:20.020Z,97648.37
2023-01-13T20:02:48.722Z,97651.93
2023-01-13T20:05:21.318Z,97656.63
2023-01-13T20:07:50.893Z,97657.23
2023-01-13T20:10:21.725Z,97662.21
2023-01-13T20:12:50.054Z,97664.48
2023-01-13T20:15:18.392Z,97666.60
2023-01-13T20:17:46.790Z,97671.40
2023-01-13T20:20:16.027Z,97676.15
2023-01-13T20:22:44.786Z,97678.74
2023-01-13T20:25:16.025Z,97681.83
2023-01-13T20:27:44.721Z,97681.89
2023-01-13T20:30:14.483Z,97674.08
2023-01-13T20:32:43.562Z,97669.64
2023-01-13T20:35:12.052Z,97671.94
2023-01-13T20:37:41.935Z,97686.40
2023-01-13T20:40:14.547Z,97691.11
2023-01-13T20:42:44.327Z,97692.41
2023-01-13T20:45:16.566Z,97692.88
2023-01-13T20:47:45.158Z,97692.05
2023-01-13T20:50:14.322Z,97692.30
2023-01-13T20:52:42.654Z,97696.17
2023-01-13T20:55:11.060Z,97695.98
2023-01-13T20:57:40.028Z,97697.95
2023-01-13T21:00:10.850Z,97705.58
2023-01-13T21:02:40.496Z,97711.67
2023-01-13T21:05:09.408Z,97715.43
2023-01-13T21:07:37.583Z,97713.01
2023-01-13T21:10:07.263Z,97715.23
2023-01-13T21:12:54.128Z,97712.64
2023-01-13T21:15:22.678Z,97715.00
2023-01-13T21:18:10.562Z,97716.77
2023-01-13T21:20:39.337Z,97723.23
2023-01-13T21:23:09.843Z,97727.64
2023-01-13T21:25:39.386Z,97730.33
2023-01-13T21:28:10.682Z,97728.55
2023-01-13T21:30:39.193Z,97733.64
2023-01-13T21:33:07.528Z,97738.58
2023-01-13T21:35:38.879Z,97742.96
2023-01-13T21:38:07.216Z,97745.87
2023-01-13T21:40:35.408Z,97745.30
2023-01-13T21:43:21.438Z,97754.45
2023-01-13T21:46:07.600Z,97755.75
2023-01-13T21:48:35.887Z,97756.73
2023-01-13T21:51:04.418Z,97760.63
2023-01-13T21:53:32.625Z,97761.23
2023-01-13T21:56:00.819Z,97759.03
2023-01-13T21:58:28.994Z,97754.67
2023-01-13T22:01:02.004Z,97752.98
2023-01-13T22:03:50.286Z,97759.52
2023-01-13T22:06:18.540Z,97757.30
2023-01-13T22:08:46.795Z,97761.94
2023-01-13T22:11:15.032Z,97764.47
2023-01-13T22:14:01.524Z,97767.64
2023-01-13T22:16:30.754Z,97773.98
2023-01-13T22:18:58.925Z,97774.77
2023-01-13T22:21:27.179Z,97770.98
2023-01-13T22:23:55.453Z,97771.00
2023-01-13T22:26:23.800Z,97772.21
2023-01-13T22:28:52.136Z,97772.02
2023-01-13T22:31:23.011Z,97774.92
2023-01-13T22:33:53.716Z,97778.91
2023-01-13T22:36:23.241Z,97778.13
2023-01-13T22:38:54.909Z,97775.36
2023-01-13T22:41:23.498Z,97775.04
2023-01-13T22:43:51.800Z,97778.29
2023-01-13T22:46:20.059Z,97780.86
2023-01-13T22:48:51.108Z,97785.53
2023-01-13T22:51:19.316Z,97792.31
2023-01-13T22:53:47.534Z,97791.45
2023-01-13T22:56:18.395Z,97795.67
2023-01-13T22:58:46.681Z,97796.55
2023-01-13T23:01:16.957Z,97795.08
2023-01-13T23:03:47.324Z,97799.61
2023-01-13T23:06:17.394Z,97798.21
2023-01-13T23:08:46.623Z,97796.96
2023-01-13T23:11:17.182Z,97799.54
2023-01-13T23:13:45.761Z,97794.03
2023-01-13T23:16:16.820Z,97797.21
2023-01-13T23:18:47.308Z,97796.25
2023-01-13T23:21:17.576Z,97796.39
2023-01-13T23:23:46.252Z,97800.86
2023-01-13T23:26:14.939Z,97801.69
2023-01-13T23:28:43.327Z,97804.06
2023-01-13T23:31:13.478Z,97807.40
2023-01-13T23:33:42.797Z,97808.64
2023-01-13T23:36:13.642Z,97812.18
2023-01-13T23:38:42.431Z,97814.23
2023-01-13T23:41:13.410Z,97813.98
2023-01-13T23:43:42.130Z,97820.91
2023-01-13T23:46:12.747Z,97818.91
2023-01-13T23:48:40.958Z,97817.30
2023-01-13T23:51:12.088Z,97813.39
2023-01-13T23:53:41.714Z,97815.43
2023-01-13T23:56:14.055Z,97820.90
2023-01-13T23:58:42.967Z,97824.55
